PWSweather.com
Personal Weather Stations
Station Observations
SD92115WX
El Cerrito Stoneybluff, San Diego, CA 92115

El Cerrito StoneybluffSan Diego, CA 92115

Lat: 32.754096, Lon: -117.066705

Elevation: 420

Station Type: Davis Vantage Vue

http://stoneybluff.com

High Low Average
Temperature 57.6°F14.2°C 35.8°F2.1°C 45.8°F7.7°C
Dew Point 43.0°F6.1°C 30.6°F-0.8°C 36.1°F2.3°C
Winds 7.2 mph 11.6 kmh Calm Calm 1.0 mph S1.6 kmh S
Wind Gusts 12.8 mph20.6 kmh -- 3.0 mph4.8 kmh
Humidity 96% 37% 72%
Pressure 30.16 in1021.3 mb 29.71 in1006.1 mb -
Precipitation 0.01 in0.3 mm - -
Hour Temp Dew Point Humidity Winds Wind Gusts Pressure Precip Precip Rate Daily Precip Total
12:02 AM 38.5°F3.6°C 36.9°F2.7°C 94% Calm Calm -- 29.71 in1006.1 mb 0.00 in0.0 mm 0.00 in0.0 mm 0.00 in0.0 mm
12:07 AM 38.3°F3.5°C 36.5°F2.5°C 93% Calm Calm -- 29.72 in1006.4 mb 0.00 in0.0 mm 0.00 in0.0 mm 0.00 in0.0 mm
12:12 AM 38.1°F3.4°C 36.3°F2.4°C 93% Calm Calm -- 29.72 in1006.4 mb 0.00 in0.0 mm 0.00 in0.0 mm 0.00 in0.0 mm
12:17 AM 37.9°F3.3°C 36.1°F2.3°C 93% Calm Calm -- 29.72 in1006.4 mb 0.00 in0.0 mm 0.00 in0.0 mm 0.00 in0.0 mm
12:22 AM 37.8°F3.2°C 36.1°F2.3°C 94% Calm Calm -- 29.72 in1006.4 mb 0.00 in0.0 mm 0.00 in0.0 mm 0.00 in0.0 mm
12:27 AM 37.8°F3.2°C 36.1°F2.3°C 94% Calm Calm -- 29.72 in1006.4 mb 0.00 in0.0 mm 0.00 in0.0 mm 0.00 in0.0 mm
12:32 AM 37.9°F3.3°C 36.3°F2.4°C 94% Calm Calm -- 29.73 in1006.8 mb 0.00 in0.0 mm 0.00 in0.0 mm 0.00 in0.0 mm
12:37 AM 37.8°F3.2°C 36.1°F2.3°C 94% Calm Calm -- 29.73 in1006.8 mb 0.00 in0.0 mm 0.00 in0.0 mm 0.00 in0.0 mm
12:42 AM 37.9°F3.3°C 36.3°F2.4°C 94% Calm Calm -- 29.73 in1006.8 mb 0.00 in0.0 mm 0.00 in0.0 mm 0.00 in0.0 mm
12:47 AM 37.9°F3.3°C 36.3°F2.4°C 94% Calm Calm -- 29.73 in1006.8 mb 0.00 in0.0 mm 0.00 in0.0 mm 0.00 in0.0 mm
12:52 AM 37.8°F3.2°C 36.1°F2.3°C 94% Calm Calm -- 29.74 in1007.1 mb 0.00 in0.0 mm 0.00 in0.0 mm 0.00 in0.0 mm
12:57 AM 37.8°F3.2°C 36.1°F2.3°C 94% Calm Calm -- 29.74 in1007.1 mb 0.00 in0.0 mm 0.00 in0.0 mm 0.00 in0.0 mm
01:02 AM 37.8°F3.2°C 36.1°F2.3°C 94% Calm Calm -- 29.74 in1007.1 mb 0.00 in0.0 mm 0.00 in0.0 mm 0.00 in0.0 mm
01:07 AM 37.6°F3.1°C 36.0°F2.2°C 94% Calm Calm -- 29.74 in1007.1 mb 0.00 in0.0 mm 0.00 in0.0 mm 0.00 in0.0 mm
01:12 AM 37.6°F3.1°C 36.0°F2.2°C 94% Calm Calm -- 29.74 in1007.1 mb 0.00 in0.0 mm 0.00 in0.0 mm 0.00 in0.0 mm
01:17 AM 37.2°F2.9°C 35.6°F2.0°C 94% Calm Calm -- 29.75 in1007.5 mb 0.00 in0.0 mm 0.00 in0.0 mm 0.00 in0.0 mm
01:22 AM 37.0°F2.8°C 35.4°F1.9°C 94% Calm Calm -- 29.75 in1007.5 mb 0.00 in0.0 mm 0.00 in0.0 mm 0.00 in0.0 mm
01:27 AM 37.2°F2.9°C 35.6°F2.0°C 94% Calm Calm -- 29.75 in1007.5 mb 0.00 in0.0 mm 0.00 in0.0 mm 0.00 in0.0 mm
01:32 AM 37.2°F2.9°C 35.6°F2.0°C 94% Calm Calm -- 29.75 in1007.5 mb 0.00 in0.0 mm 0.00 in0.0 mm 0.00 in0.0 mm
01:37 AM 37.0°F2.8°C 35.4°F1.9°C 94% Calm Calm -- 29.75 in1007.5 mb 0.00 in0.0 mm 0.00 in0.0 mm 0.00 in0.0 mm
01:42 AM 37.2°F2.9°C 35.6°F2.0°C 94% Calm Calm -- 29.75 in1007.5 mb 0.00 in0.0 mm 0.00 in0.0 mm 0.00 in0.0 mm
01:47 AM 37.2°F2.9°C 35.6°F2.0°C 94% Calm Calm -- 29.75 in1007.5 mb 0.00 in0.0 mm 0.00 in0.0 mm 0.00 in0.0 mm
01:52 AM 37.4°F3.0°C 36.1°F2.3°C 95% Calm Calm 1.1 mph1.8 kmh 29.75 in1007.5 mb 0.00 in0.0 mm 0.00 in0.0 mm 0.00 in0.0 mm
01:57 AM 37.4°F3.0°C 35.8°F2.1°C 94% Calm Calm -- 29.75 in1007.5 mb 0.00 in0.0 mm 0.00 in0.0 mm 0.00 in0.0 mm
02:02 AM 37.2°F2.9°C 35.6°F2.0°C 94% Calm Calm -- 29.75 in1007.5 mb 0.00 in0.0 mm 0.00 in0.0 mm 0.00 in0.0 mm
02:07 AM 37.2°F2.9°C 35.6°F2.0°C 94% Calm Calm -- 29.75 in1007.5 mb 0.00 in0.0 mm 0.00 in0.0 mm 0.00 in0.0 mm
02:12 AM 37.2°F2.9°C 35.6°F2.0°C 94% Calm Calm -- 29.76 in1007.8 mb 0.00 in0.0 mm 0.00 in0.0 mm 0.00 in0.0 mm
02:17 AM 37.4°F3.0°C 36.1°F2.3°C 95% 0.2 mph NE0.3 kmh NE 2.0 mph3.2 kmh 29.76 in1007.8 mb 0.00 in0.0 mm 0.00 in0.0 mm 0.00 in0.0 mm
02:22 AM 37.4°F3.0°C 35.8°F2.1°C 94% Calm Calm -- 29.76 in1007.8 mb 0.00 in0.0 mm 0.00 in0.0 mm 0.00 in0.0 mm
02:27 AM 37.6°F3.1°C 36.0°F2.2°C 94% Calm Calm 1.1 mph1.8 kmh 29.77 in1008.1 mb 0.00 in0.0 mm 0.00 in0.0 mm 0.00 in0.0 mm
02:32 AM 37.4°F3.0°C 35.8°F2.1°C 94% Calm Calm -- 29.77 in1008.1 mb 0.00 in0.0 mm 0.00 in0.0 mm 0.00 in0.0 mm
02:37 AM 37.2°F2.9°C 35.6°F2.0°C 94% Calm Calm 1.1 mph1.8 kmh 29.77 in1008.1 mb 0.00 in0.0 mm 0.00 in0.0 mm 0.00 in0.0 mm
02:42 AM 37.2°F2.9°C 35.6°F2.0°C 94% Calm Calm -- 29.77 in1008.1 mb 0.00 in0.0 mm 0.00 in0.0 mm 0.00 in0.0 mm
02:47 AM 37.2°F2.9°C 35.6°F2.0°C 94% Calm Calm -- 29.77 in1008.1 mb 0.00 in0.0 mm 0.00 in0.0 mm 0.00 in0.0 mm
02:52 AM 37.2°F2.9°C 35.6°F2.0°C 94% Calm Calm -- 29.77 in1008.1 mb 0.00 in0.0 mm 0.00 in0.0 mm 0.00 in0.0 mm
02:57 AM 36.9°F2.7°C 35.2°F1.8°C 94% Calm Calm -- 29.77 in1008.1 mb 0.00 in0.0 mm 0.00 in0.0 mm 0.00 in0.0 mm
03:02 AM 36.7°F2.6°C 35.1°F1.7°C 94% Calm Calm -- 29.77 in1008.1 mb 0.00 in0.0 mm 0.00 in0.0 mm 0.00 in0.0 mm
03:07 AM 36.7°F2.6°C 35.1°F1.7°C 94% Calm Calm -- 29.77 in1008.1 mb 0.00 in0.0 mm 0.00 in0.0 mm 0.00 in0.0 mm
03:12 AM 36.7°F2.6°C 35.4°F1.9°C 95% Calm Calm -- 29.77 in1008.1 mb 0.00 in0.0 mm 0.00 in0.0 mm 0.00 in0.0 mm
03:17 AM 36.7°F2.6°C 35.1°F1.7°C 94% Calm Calm -- 29.78 in1008.5 mb 0.00 in0.0 mm 0.00 in0.0 mm 0.00 in0.0 mm
03:22 AM 36.5°F2.5°C 34.9°F1.6°C 94% Calm Calm -- 29.78 in1008.5 mb 0.00 in0.0 mm 0.00 in0.0 mm 0.00 in0.0 mm
03:27 AM 36.7°F2.6°C 35.4°F1.9°C 95% Calm Calm -- 29.78 in1008.5 mb 0.00 in0.0 mm 0.00 in0.0 mm 0.00 in0.0 mm
03:32 AM 36.3°F2.4°C 34.7°F1.5°C 94% Calm Calm -- 29.78 in1008.5 mb 0.00 in0.0 mm 0.00 in0.0 mm 0.00 in0.0 mm
03:37 AM 36.3°F2.4°C 34.7°F1.5°C 94% Calm Calm -- 29.78 in1008.5 mb 0.00 in0.0 mm 0.00 in0.0 mm 0.00 in0.0 mm
03:42 AM 36.1°F2.3°C 34.5°F1.4°C 94% Calm Calm -- 29.78 in1008.5 mb 0.00 in0.0 mm 0.00 in0.0 mm 0.00 in0.0 mm
03:47 AM 36.0°F2.2°C 34.7°F1.5°C 95% Calm Calm -- 29.78 in1008.5 mb 0.00 in0.0 mm 0.00 in0.0 mm 0.00 in0.0 mm
03:52 AM 36.3°F2.4°C 35.1°F1.7°C 95% Calm Calm -- 29.79 in1008.8 mb 0.00 in0.0 mm 0.00 in0.0 mm 0.00 in0.0 mm
03:57 AM 36.3°F2.4°C 35.1°F1.7°C 95% Calm Calm -- 29.79 in1008.8 mb 0.00 in0.0 mm 0.00 in0.0 mm 0.00 in0.0 mm
04:02 AM 36.3°F2.4°C 35.1°F1.7°C 95% Calm Calm -- 29.79 in1008.8 mb 0.00 in0.0 mm 0.00 in0.0 mm 0.00 in0.0 mm
04:07 AM 36.1°F2.3°C 34.9°F1.6°C 95% Calm Calm -- 29.80 in1009.1 mb 0.00 in0.0 mm 0.00 in0.0 mm 0.00 in0.0 mm
04:12 AM 36.1°F2.3°C 34.9°F1.6°C 95% Calm Calm -- 29.80 in1009.1 mb 0.00 in0.0 mm 0.00 in0.0 mm 0.00 in0.0 mm
04:17 AM 36.0°F2.2°C 34.7°F1.5°C 95% Calm Calm -- 29.80 in1009.1 mb 0.00 in0.0 mm 0.00 in0.0 mm 0.00 in0.0 mm
04:22 AM 36.0°F2.2°C 34.7°F1.5°C 95% Calm Calm -- 29.80 in1009.1 mb 0.00 in0.0 mm 0.00 in0.0 mm 0.00 in0.0 mm
04:27 AM 36.1°F2.3°C 34.9°F1.6°C 95% Calm Calm -- 29.81 in1009.5 mb 0.00 in0.0 mm 0.00 in0.0 mm 0.00 in0.0 mm
04:32 AM 36.1°F2.3°C 34.9°F1.6°C 95% Calm Calm -- 29.81 in1009.5 mb 0.00 in0.0 mm 0.00 in0.0 mm 0.00 in0.0 mm
04:37 AM 36.1°F2.3°C 34.9°F1.6°C 95% Calm Calm -- 29.81 in1009.5 mb 0.00 in0.0 mm 0.00 in0.0 mm 0.00 in0.0 mm
04:42 AM 36.1°F2.3°C 34.9°F1.6°C 95% Calm Calm -- 29.81 in1009.5 mb 0.00 in0.0 mm 0.00 in0.0 mm 0.00 in0.0 mm
04:47 AM 36.1°F2.3°C 34.9°F1.6°C 95% Calm Calm -- 29.81 in1009.5 mb 0.00 in0.0 mm 0.00 in0.0 mm 0.00 in0.0 mm
04:52 AM 36.0°F2.2°C 34.7°F1.5°C 95% Calm Calm 1.1 mph1.8 kmh 29.81 in1009.5 mb 0.00 in0.0 mm 0.00 in0.0 mm 0.00 in0.0 mm
04:57 AM 36.0°F2.2°C 34.7°F1.5°C 95% Calm Calm -- 29.81 in1009.5 mb 0.00 in0.0 mm 0.00 in0.0 mm 0.00 in0.0 mm
05:02 AM 36.1°F2.3°C 34.9°F1.6°C 95% Calm Calm -- 29.82 in1009.8 mb 0.00 in0.0 mm 0.00 in0.0 mm 0.00 in0.0 mm
05:07 AM 36.1°F2.3°C 34.9°F1.6°C 95% Calm Calm -- 29.82 in1009.8 mb 0.00 in0.0 mm 0.00 in0.0 mm 0.00 in0.0 mm
05:12 AM 36.1°F2.3°C 34.9°F1.6°C 95% Calm Calm -- 29.82 in1009.8 mb 0.00 in0.0 mm 0.00 in0.0 mm 0.00 in0.0 mm
05:17 AM 36.0°F2.2°C 34.7°F1.5°C 95% Calm Calm -- 29.83 in1010.2 mb 0.00 in0.0 mm 0.00 in0.0 mm 0.00 in0.0 mm
05:22 AM 36.1°F2.3°C 34.9°F1.6°C 95% Calm Calm -- 29.83 in1010.2 mb 0.00 in0.0 mm 0.00 in0.0 mm 0.00 in0.0 mm
05:27 AM 36.1°F2.3°C 34.9°F1.6°C 95% Calm Calm -- 29.83 in1010.2 mb 0.00 in0.0 mm 0.00 in0.0 mm 0.00 in0.0 mm
05:32 AM 36.1°F2.3°C 34.9°F1.6°C 95% Calm Calm -- 29.83 in1010.2 mb 0.00 in0.0 mm 0.00 in0.0 mm 0.00 in0.0 mm
05:37 AM 36.1°F2.3°C 34.9°F1.6°C 95% Calm Calm -- 29.84 in1010.5 mb 0.00 in0.0 mm 0.00 in0.0 mm 0.00 in0.0 mm
05:42 AM 36.5°F2.5°C 35.2°F1.8°C 95% Calm Calm -- 29.85 in1010.8 mb 0.00 in0.0 mm 0.00 in0.0 mm 0.00 in0.0 mm
05:47 AM 36.5°F2.5°C 35.2°F1.8°C 95% Calm Calm -- 29.85 in1010.8 mb 0.00 in0.0 mm 0.00 in0.0 mm 0.00 in0.0 mm
05:52 AM 36.3°F2.4°C 35.1°F1.7°C 95% Calm Calm -- 29.85 in1010.8 mb 0.00 in0.0 mm 0.00 in0.0 mm 0.00 in0.0 mm
05:57 AM 36.3°F2.4°C 35.1°F1.7°C 95% Calm Calm -- 29.85 in1010.8 mb 0.00 in0.0 mm 0.00 in0.0 mm 0.00 in0.0 mm
06:02 AM 36.1°F2.3°C 34.9°F1.6°C 95% Calm Calm -- 29.85 in1010.8 mb 0.00 in0.0 mm 0.00 in0.0 mm 0.00 in0.0 mm
06:07 AM 36.1°F2.3°C 34.9°F1.6°C 95% Calm Calm -- 29.85 in1010.8 mb 0.00 in0.0 mm 0.00 in0.0 mm 0.00 in0.0 mm
06:12 AM 36.0°F2.2°C 34.7°F1.5°C 95% Calm Calm -- 29.85 in1010.8 mb 0.00 in0.0 mm 0.00 in0.0 mm 0.00 in0.0 mm
06:17 AM 36.0°F2.2°C 34.7°F1.5°C 95% Calm Calm -- 29.86 in1011.2 mb 0.00 in0.0 mm 0.00 in0.0 mm 0.00 in0.0 mm
06:22 AM 35.8°F2.1°C 34.5°F1.4°C 95% Calm Calm -- 29.86 in1011.2 mb 0.00 in0.0 mm 0.00 in0.0 mm 0.00 in0.0 mm
06:27 AM 35.8°F2.1°C 34.5°F1.4°C 95% Calm Calm -- 29.86 in1011.2 mb 0.00 in0.0 mm 0.00 in0.0 mm 0.00 in0.0 mm
06:32 AM 36.0°F2.2°C 34.7°F1.5°C 95% Calm Calm -- 29.87 in1011.5 mb 0.00 in0.0 mm 0.00 in0.0 mm 0.00 in0.0 mm
06:37 AM 35.8°F2.1°C 34.5°F1.4°C 95% Calm Calm -- 29.87 in1011.5 mb 0.00 in0.0 mm 0.00 in0.0 mm 0.00 in0.0 mm
06:42 AM 36.0°F2.2°C 34.7°F1.5°C 95% Calm Calm -- 29.87 in1011.5 mb 0.00 in0.0 mm 0.00 in0.0 mm 0.00 in0.0 mm
06:47 AM 35.8°F2.1°C 34.5°F1.4°C 95% Calm Calm -- 29.87 in1011.5 mb 0.00 in0.0 mm 0.00 in0.0 mm 0.00 in0.0 mm
06:52 AM 35.8°F2.1°C 34.5°F1.4°C 95% Calm Calm -- 29.88 in1011.9 mb 0.00 in0.0 mm 0.00 in0.0 mm 0.00 in0.0 mm
06:57 AM 36.1°F2.3°C 34.9°F1.6°C 95% Calm Calm 1.1 mph1.8 kmh 29.88 in1011.9 mb 0.00 in0.0 mm 0.00 in0.0 mm 0.00 in0.0 mm
07:02 AM 36.3°F2.4°C 35.2°F1.8°C 96% Calm Calm -- 29.88 in1011.9 mb 0.00 in0.0 mm 0.00 in0.0 mm 0.00 in0.0 mm
07:07 AM 36.3°F2.4°C 35.2°F1.8°C 96% Calm Calm -- 29.88 in1011.9 mb 0.00 in0.0 mm 0.00 in0.0 mm 0.00 in0.0 mm
07:12 AM 36.7°F2.6°C 35.6°F2.0°C 96% Calm Calm 1.1 mph1.8 kmh 29.89 in1012.2 mb 0.00 in0.0 mm 0.00 in0.0 mm 0.00 in0.0 mm
07:17 AM 37.2°F2.9°C 36.1°F2.3°C 96% Calm Calm 1.1 mph1.8 kmh 29.89 in1012.2 mb 0.00 in0.0 mm 0.00 in0.0 mm 0.00 in0.0 mm
07:22 AM 37.6°F3.1°C 36.5°F2.5°C 96% Calm Calm 1.1 mph1.8 kmh 29.90 in1012.5 mb 0.00 in0.0 mm 0.00 in0.0 mm 0.00 in0.0 mm
07:27 AM 37.9°F3.3°C 36.9°F2.7°C 96% Calm Calm -- 29.90 in1012.5 mb 0.00 in0.0 mm 0.00 in0.0 mm 0.00 in0.0 mm
07:32 AM 38.3°F3.5°C 37.2°F2.9°C 96% Calm Calm 2.0 mph3.2 kmh 29.90 in1012.5 mb 0.00 in0.0 mm 0.00 in0.0 mm 0.00 in0.0 mm
07:37 AM 38.7°F3.7°C 37.6°F3.1°C 96% Calm Calm 1.1 mph1.8 kmh 29.91 in1012.9 mb 0.00 in0.0 mm 0.00 in0.0 mm 0.00 in0.0 mm
07:42 AM 39.0°F3.9°C 37.9°F3.3°C 96% Calm Calm 1.1 mph1.8 kmh 29.91 in1012.9 mb 0.00 in0.0 mm 0.00 in0.0 mm 0.00 in0.0 mm
07:47 AM 39.2°F4.0°C 38.1°F3.4°C 96% Calm Calm -- 29.91 in1012.9 mb 0.00 in0.0 mm 0.00 in0.0 mm 0.00 in0.0 mm
07:52 AM 39.6°F4.2°C 38.5°F3.6°C 96% Calm Calm -- 29.91 in1012.9 mb 0.00 in0.0 mm 0.00 in0.0 mm 0.00 in0.0 mm
07:57 AM 39.9°F4.4°C 38.8°F3.8°C 96% 0.9 mph ESE1.4 kmh ESE 2.0 mph3.2 kmh 29.92 in1013.2 mb 0.00 in0.0 mm 0.00 in0.0 mm 0.00 in0.0 mm
08:02 AM 40.5°F4.7°C 39.4°F4.1°C 96% 0.2 mph ENE0.3 kmh ENE 2.0 mph3.2 kmh 29.92 in1013.2 mb 0.00 in0.0 mm 0.00 in0.0 mm 0.00 in0.0 mm
08:07 AM 40.8°F4.9°C 39.7°F4.3°C 96% Calm Calm -- 29.93 in1013.5 mb 0.00 in0.0 mm 0.00 in0.0 mm 0.00 in0.0 mm
08:12 AM 41.2°F5.1°C 39.9°F4.4°C 95% Calm Calm -- 29.93 in1013.5 mb 0.00 in0.0 mm 0.00 in0.0 mm 0.00 in0.0 mm
08:17 AM 41.5°F5.3°C 40.3°F4.6°C 95% Calm Calm -- 29.93 in1013.5 mb 0.00 in0.0 mm 0.00 in0.0 mm 0.00 in0.0 mm
08:22 AM 41.9°F5.5°C 40.6°F4.8°C 95% Calm Calm -- 29.93 in1013.5 mb 0.00 in0.0 mm 0.00 in0.0 mm 0.00 in0.0 mm
08:27 AM 42.3°F5.7°C 40.6°F4.8°C 94% 0.2 mph E0.3 kmh E 2.0 mph3.2 kmh 29.93 in1013.5 mb 0.00 in0.0 mm 0.00 in0.0 mm 0.00 in0.0 mm
08:32 AM 42.8°F6.0°C 41.2°F5.1°C 94% Calm Calm 2.0 mph3.2 kmh 29.93 in1013.5 mb 0.00 in0.0 mm 0.00 in0.0 mm 0.00 in0.0 mm
08:37 AM 43.5°F6.4°C 41.7°F5.4°C 93% Calm Calm -- 29.94 in1013.9 mb 0.00 in0.0 mm 0.00 in0.0 mm 0.00 in0.0 mm
08:42 AM 44.2°F6.8°C 42.3°F5.7°C 93% Calm Calm -- 29.94 in1013.9 mb 0.01 in0.3 mm 0.12 in3.0 mm 0.01 in0.3 mm
08:47 AM 45.1°F7.3°C 43.0°F6.1°C 92% Calm Calm 1.1 mph1.8 kmh 29.93 in1013.5 mb 0.01 in0.3 mm 0.00 in0.0 mm 0.01 in0.3 mm
08:52 AM 45.5°F7.5°C 42.4°F5.8°C 89% Calm Calm -- 29.94 in1013.9 mb 0.01 in0.3 mm 0.00 in0.0 mm 0.01 in0.3 mm
08:57 AM 45.9°F7.7°C 42.3°F5.7°C 87% 0.2 mph SE0.3 kmh SE 1.1 mph1.8 kmh 29.94 in1013.9 mb 0.01 in0.3 mm 0.00 in0.0 mm 0.01 in0.3 mm
09:02 AM 46.6°F8.1°C 42.1°F5.6°C 84% 0.2 mph SE0.3 kmh SE 2.0 mph3.2 kmh 29.94 in1013.9 mb 0.01 in0.3 mm 0.00 in0.0 mm 0.01 in0.3 mm
09:07 AM 47.5°F8.6°C 42.3°F5.7°C 82% Calm Calm 2.0 mph3.2 kmh 29.94 in1013.9 mb 0.01 in0.3 mm 0.00 in0.0 mm 0.01 in0.3 mm
09:12 AM 48.0°F8.9°C 42.1°F5.6°C 80% Calm Calm 1.1 mph1.8 kmh 29.94 in1013.9 mb 0.01 in0.3 mm 0.00 in0.0 mm 0.01 in0.3 mm
09:17 AM 48.6°F9.2°C 42.1°F5.6°C 78% Calm Calm 1.1 mph1.8 kmh 29.94 in1013.9 mb 0.01 in0.3 mm 0.00 in0.0 mm 0.01 in0.3 mm
09:22 AM 48.7°F9.3°C 41.9°F5.5°C 77% Calm Calm -- 29.94 in1013.9 mb 0.01 in0.3 mm 0.00 in0.0 mm 0.01 in0.3 mm
09:27 AM 48.9°F9.4°C 41.0°F5.0°C 74% 0.2 mph NNE0.3 kmh NNE 3.1 mph5.0 kmh 29.94 in1013.9 mb 0.01 in0.3 mm 0.00 in0.0 mm 0.01 in0.3 mm
09:32 AM 49.3°F9.6°C 40.3°F4.6°C 71% 0.7 mph NW1.1 kmh NW 3.1 mph5.0 kmh 29.94 in1013.9 mb 0.01 in0.3 mm 0.00 in0.0 mm 0.01 in0.3 mm
09:37 AM 49.5°F9.7°C 39.0°F3.9°C 67% 2.0 mph N3.2 kmh N 5.4 mph8.7 kmh 29.94 in1013.9 mb 0.01 in0.3 mm 0.00 in0.0 mm 0.01 in0.3 mm
09:42 AM 49.6°F9.8°C 38.7°F3.7°C 66% 4.9 mph WNW7.9 kmh WNW 8.5 mph13.7 kmh 29.95 in1014.2 mb 0.00 in0.0 mm 0.00 in0.0 mm 0.01 in0.3 mm
09:47 AM 49.8°F9.9°C 38.5°F3.6°C 65% 1.1 mph NE1.8 kmh NE 6.3 mph10.1 kmh 29.95 in1014.2 mb 0.00 in0.0 mm 0.00 in0.0 mm 0.01 in0.3 mm
09:52 AM 50.0°F10.0°C 38.3°F3.5°C 64% 2.9 mph NW4.7 kmh NW 8.5 mph13.7 kmh 29.95 in1014.2 mb 0.00 in0.0 mm 0.00 in0.0 mm 0.01 in0.3 mm
09:57 AM 50.4°F10.2°C 38.7°F3.7°C 64% 1.8 mph NW2.9 kmh NW 4.3 mph6.9 kmh 29.95 in1014.2 mb 0.00 in0.0 mm 0.00 in0.0 mm 0.01 in0.3 mm
10:02 AM 50.7°F10.4°C 39.0°F3.9°C 64% 0.9 mph WNW1.4 kmh WNW 4.3 mph6.9 kmh 29.95 in1014.2 mb 0.00 in0.0 mm 0.00 in0.0 mm 0.01 in0.3 mm
10:07 AM 51.6°F10.9°C 40.3°F4.6°C 65% 0.9 mph NE1.4 kmh NE 4.3 mph6.9 kmh 29.95 in1014.2 mb 0.00 in0.0 mm 0.00 in0.0 mm 0.01 in0.3 mm
10:12 AM 51.8°F11.0°C 38.8°F3.8°C 61% 2.2 mph NW3.5 kmh NW 5.4 mph8.7 kmh 29.95 in1014.2 mb 0.00 in0.0 mm 0.00 in0.0 mm 0.01 in0.3 mm
10:17 AM 51.6°F10.9°C 38.1°F3.4°C 60% 1.1 mph W1.8 kmh W 5.4 mph8.7 kmh 29.96 in1014.6 mb 0.00 in0.0 mm 0.00 in0.0 mm 0.01 in0.3 mm
10:22 AM 51.6°F10.9°C 39.0°F3.9°C 62% 0.4 mph NNW0.6 kmh NNW 6.3 mph10.1 kmh 29.96 in1014.6 mb 0.00 in0.0 mm 0.00 in0.0 mm 0.01 in0.3 mm
10:27 AM 52.2°F11.2°C 39.9°F4.4°C 63% 1.3 mph WNW2.1 kmh WNW 4.3 mph6.9 kmh 29.96 in1014.6 mb 0.00 in0.0 mm 0.00 in0.0 mm 0.01 in0.3 mm
10:32 AM 52.3°F11.3°C 38.8°F3.8°C 60% 0.4 mph SW0.6 kmh SW 4.3 mph6.9 kmh 29.96 in1014.6 mb 0.00 in0.0 mm 0.00 in0.0 mm 0.01 in0.3 mm
10:37 AM 52.7°F11.5°C 38.8°F3.8°C 59% 0.9 mph W1.4 kmh W 3.1 mph5.0 kmh 29.96 in1014.6 mb 0.00 in0.0 mm 0.00 in0.0 mm 0.01 in0.3 mm
10:42 AM 53.4°F11.9°C 40.6°F4.8°C 62% 0.9 mph W1.4 kmh W 2.0 mph3.2 kmh 29.96 in1014.6 mb 0.00 in0.0 mm 0.00 in0.0 mm 0.01 in0.3 mm
10:47 AM 53.4°F11.9°C 39.0°F3.9°C 58% 1.8 mph NE2.9 kmh NE 4.3 mph6.9 kmh 29.96 in1014.6 mb 0.00 in0.0 mm 0.00 in0.0 mm 0.01 in0.3 mm
10:52 AM 53.8°F12.1°C 38.5°F3.6°C 56% 1.3 mph NE2.1 kmh NE 4.3 mph6.9 kmh 29.96 in1014.6 mb 0.00 in0.0 mm 0.00 in0.0 mm 0.01 in0.3 mm
10:57 AM 54.1°F12.3°C 37.4°F3.0°C 53% 2.0 mph NW3.2 kmh NW 5.4 mph8.7 kmh 29.96 in1014.6 mb 0.00 in0.0 mm 0.00 in0.0 mm 0.01 in0.3 mm
11:02 AM 54.5°F12.5°C 38.7°F3.7°C 55% 0.2 mph WSW0.3 kmh WSW 2.0 mph3.2 kmh 29.96 in1014.6 mb 0.00 in0.0 mm 0.00 in0.0 mm 0.01 in0.3 mm
11:07 AM 55.0°F12.8°C 38.3°F3.5°C 53% 1.3 mph W2.1 kmh W 3.1 mph5.0 kmh 29.96 in1014.6 mb 0.00 in0.0 mm 0.00 in0.0 mm 0.01 in0.3 mm
11:12 AM 54.9°F12.7°C 36.1°F2.3°C 49% 1.6 mph W2.6 kmh W 7.4 mph11.9 kmh 29.97 in1014.9 mb 0.00 in0.0 mm 0.00 in0.0 mm 0.01 in0.3 mm
11:17 AM 55.0°F12.8°C 37.8°F3.2°C 52% 0.7 mph NW1.1 kmh NW 5.4 mph8.7 kmh 29.97 in1014.9 mb 0.00 in0.0 mm 0.00 in0.0 mm 0.01 in0.3 mm
11:22 AM 55.6°F13.1°C 35.6°F2.0°C 47% 3.8 mph WSW6.1 kmh WSW 9.6 mph15.4 kmh 29.97 in1014.9 mb 0.00 in0.0 mm 0.00 in0.0 mm 0.01 in0.3 mm
11:27 AM 55.0°F12.8°C 35.8°F2.1°C 48% 2.5 mph NW4.0 kmh NW 9.6 mph15.4 kmh 29.97 in1014.9 mb 0.00 in0.0 mm 0.00 in0.0 mm 0.01 in0.3 mm
11:32 AM 55.4°F13.0°C 35.4°F1.9°C 47% 4.3 mph NW6.9 kmh NW 9.6 mph15.4 kmh 29.96 in1014.6 mb 0.00 in0.0 mm 0.00 in0.0 mm 0.01 in0.3 mm
11:37 AM 55.0°F12.8°C 33.4°F0.8°C 44% 4.7 mph W7.6 kmh W 8.5 mph13.7 kmh 29.96 in1014.6 mb 0.00 in0.0 mm 0.00 in0.0 mm 0.01 in0.3 mm
11:42 AM 54.9°F12.7°C 34.5°F1.4°C 46% 2.0 mph N3.2 kmh N 8.5 mph13.7 kmh 29.96 in1014.6 mb 0.00 in0.0 mm 0.00 in0.0 mm 0.01 in0.3 mm
11:47 AM 55.6°F13.1°C 35.1°F1.7°C 46% 4.0 mph WNW6.4 kmh WNW 8.5 mph13.7 kmh 29.96 in1014.6 mb 0.00 in0.0 mm 0.00 in0.0 mm 0.01 in0.3 mm
11:52 AM 55.6°F13.1°C 35.1°F1.7°C 46% 4.0 mph W6.4 kmh W 10.5 mph16.9 kmh 29.96 in1014.6 mb 0.00 in0.0 mm 0.00 in0.0 mm 0.01 in0.3 mm
11:57 AM 55.9°F13.3°C 34.9°F1.6°C 45% 3.1 mph NNE5.0 kmh NNE 7.4 mph11.9 kmh 29.96 in1014.6 mb 0.00 in0.0 mm 0.00 in0.0 mm 0.01 in0.3 mm
12:02 PM 55.9°F13.3°C 35.4°F1.9°C 46% 0.9 mph WSW1.4 kmh WSW 6.3 mph10.1 kmh 29.96 in1014.6 mb 0.00 in0.0 mm 0.00 in0.0 mm 0.01 in0.3 mm
12:07 PM 56.8°F13.8°C 37.4°F3.0°C 48% 1.6 mph WNW2.6 kmh WNW 6.3 mph10.1 kmh 29.96 in1014.6 mb 0.00 in0.0 mm 0.00 in0.0 mm 0.01 in0.3 mm
12:12 PM 56.5°F13.6°C 34.9°F1.6°C 44% 4.3 mph WSW6.9 kmh WSW 9.6 mph15.4 kmh 29.96 in1014.6 mb 0.00 in0.0 mm 0.00 in0.0 mm 0.01 in0.3 mm
12:17 PM 56.5°F13.6°C 36.5°F2.5°C 47% 3.4 mph WSW5.5 kmh WSW 8.5 mph13.7 kmh 29.96 in1014.6 mb 0.00 in0.0 mm 0.00 in0.0 mm 0.01 in0.3 mm
12:22 PM 56.8°F13.8°C 36.9°F2.7°C 47% 3.6 mph SW5.8 kmh SW 8.5 mph13.7 kmh 29.96 in1014.6 mb 0.00 in0.0 mm 0.00 in0.0 mm 0.01 in0.3 mm
12:27 PM 57.2°F14.0°C 35.4°F1.9°C 44% 5.1 mph NW8.2 kmh NW 10.5 mph16.9 kmh 29.96 in1014.6 mb 0.00 in0.0 mm 0.00 in0.0 mm 0.01 in0.3 mm
12:32 PM 56.8°F13.8°C 36.3°F2.4°C 46% 3.8 mph WNW6.1 kmh WNW 9.6 mph15.4 kmh 29.96 in1014.6 mb 0.00 in0.0 mm 0.00 in0.0 mm 0.01 in0.3 mm
12:37 PM 56.5°F13.6°C 35.4°F1.9°C 45% 3.6 mph WNW5.8 kmh WNW 8.5 mph13.7 kmh 29.96 in1014.6 mb 0.00 in0.0 mm 0.00 in0.0 mm 0.01 in0.3 mm
12:42 PM 56.7°F13.7°C 35.1°F1.7°C 44% 4.7 mph NNW7.6 kmh NNW 7.4 mph11.9 kmh 29.96 in1014.6 mb 0.00 in0.0 mm 0.00 in0.0 mm 0.01 in0.3 mm
12:47 PM 56.7°F13.7°C 36.7°F2.6°C 47% 2.5 mph WSW4.0 kmh WSW 6.3 mph10.1 kmh 29.96 in1014.6 mb 0.00 in0.0 mm 0.00 in0.0 mm 0.01 in0.3 mm
12:52 PM 57.0°F13.9°C 38.1°F3.4°C 49% 4.0 mph NW6.4 kmh NW 9.6 mph15.4 kmh 29.96 in1014.6 mb 0.00 in0.0 mm 0.00 in0.0 mm 0.01 in0.3 mm
12:57 PM 56.8°F13.8°C 35.2°F1.8°C 44% 5.1 mph NW8.2 kmh NW 11.6 mph18.7 kmh 29.96 in1014.6 mb 0.00 in0.0 mm 0.00 in0.0 mm 0.01 in0.3 mm
01:02 PM 56.7°F13.7°C 34.3°F1.3°C 43% 5.8 mph W9.3 kmh W 11.6 mph18.7 kmh 29.96 in1014.6 mb 0.00 in0.0 mm 0.00 in0.0 mm 0.01 in0.3 mm
01:07 PM 56.5°F13.6°C 36.5°F2.5°C 47% 4.7 mph WNW7.6 kmh WNW 12.8 mph20.6 kmh 29.96 in1014.6 mb 0.00 in0.0 mm 0.00 in0.0 mm 0.01 in0.3 mm
01:12 PM 56.5°F13.6°C 36.5°F2.5°C 47% 3.1 mph NW5.0 kmh NW 7.4 mph11.9 kmh 29.96 in1014.6 mb 0.00 in0.0 mm 0.00 in0.0 mm 0.01 in0.3 mm
01:17 PM 56.3°F13.5°C 35.8°F2.1°C 46% 3.4 mph NW5.5 kmh NW 10.5 mph16.9 kmh 29.96 in1014.6 mb 0.00 in0.0 mm 0.00 in0.0 mm 0.01 in0.3 mm
01:22 PM 56.1°F13.4°C 36.1°F2.3°C 47% 4.7 mph WSW7.6 kmh WSW 9.6 mph15.4 kmh 29.96 in1014.6 mb 0.00 in0.0 mm 0.00 in0.0 mm 0.01 in0.3 mm
01:27 PM 56.5°F13.6°C 38.1°F3.4°C 50% 5.4 mph SW8.7 kmh SW 8.5 mph13.7 kmh 29.96 in1014.6 mb 0.00 in0.0 mm 0.00 in0.0 mm 0.01 in0.3 mm
01:32 PM 56.7°F13.7°C 36.1°F2.3°C 46% 5.4 mph WNW8.7 kmh WNW 12.8 mph20.6 kmh 29.96 in1014.6 mb 0.00 in0.0 mm 0.00 in0.0 mm 0.01 in0.3 mm
01:37 PM 56.7°F13.7°C 36.7°F2.6°C 47% 3.8 mph WSW6.1 kmh WSW 12.8 mph20.6 kmh 29.96 in1014.6 mb 0.00 in0.0 mm 0.00 in0.0 mm 0.01 in0.3 mm
01:42 PM 56.5°F13.6°C 36.5°F2.5°C 47% 4.5 mph NNW7.2 kmh NNW 12.8 mph20.6 kmh 29.96 in1014.6 mb 0.00 in0.0 mm 0.00 in0.0 mm 0.01 in0.3 mm
01:47 PM 56.8°F13.8°C 36.9°F2.7°C 47% 4.5 mph SSW7.2 kmh SSW 9.6 mph15.4 kmh 29.96 in1014.6 mb 0.00 in0.0 mm 0.00 in0.0 mm 0.01 in0.3 mm
01:52 PM 57.0°F13.9°C 36.0°F2.2°C 45% 4.9 mph WSW7.9 kmh WSW 9.6 mph15.4 kmh 29.96 in1014.6 mb 0.00 in0.0 mm 0.00 in0.0 mm 0.01 in0.3 mm
01:57 PM 57.0°F13.9°C 36.0°F2.2°C 45% 3.8 mph NW6.1 kmh NW 8.5 mph13.7 kmh 29.97 in1014.9 mb 0.00 in0.0 mm 0.00 in0.0 mm 0.01 in0.3 mm
02:02 PM 57.0°F13.9°C 32.9°F0.5°C 40% 6.7 mph NW10.8 kmh NW 9.6 mph15.4 kmh 29.96 in1014.6 mb 0.00 in0.0 mm 0.00 in0.0 mm 0.01 in0.3 mm
02:07 PM 56.8°F13.8°C 32.7°F0.4°C 40% 4.9 mph NW7.9 kmh NW 10.5 mph16.9 kmh 29.97 in1014.9 mb 0.00 in0.0 mm 0.00 in0.0 mm 0.01 in0.3 mm
02:12 PM 57.4°F14.1°C 34.5°F1.4°C 42% 4.0 mph WNW6.4 kmh WNW 8.5 mph13.7 kmh 29.96 in1014.6 mb 0.00 in0.0 mm 0.00 in0.0 mm 0.01 in0.3 mm
02:17 PM 57.0°F13.9°C 33.6°F0.9°C 41% 3.8 mph WSW6.1 kmh WSW 9.6 mph15.4 kmh 29.96 in1014.6 mb 0.00 in0.0 mm 0.00 in0.0 mm 0.01 in0.3 mm
02:22 PM 57.4°F14.1°C 33.8°F1.0°C 41% 4.0 mph N6.4 kmh N 10.5 mph16.9 kmh 29.96 in1014.6 mb 0.00 in0.0 mm 0.00 in0.0 mm 0.01 in0.3 mm
02:27 PM 57.4°F14.1°C 33.8°F1.0°C 41% 4.5 mph NW7.2 kmh NW 11.6 mph18.7 kmh 29.96 in1014.6 mb 0.00 in0.0 mm 0.00 in0.0 mm 0.01 in0.3 mm
02:32 PM 57.4°F14.1°C 33.8°F1.0°C 41% 5.8 mph WSW9.3 kmh WSW 11.6 mph18.7 kmh 29.96 in1014.6 mb 0.00 in0.0 mm 0.00 in0.0 mm 0.01 in0.3 mm
02:37 PM 57.6°F14.2°C 35.8°F2.1°C 44% 3.1 mph WNW5.0 kmh WNW 10.5 mph16.9 kmh 29.97 in1014.9 mb 0.00 in0.0 mm 0.00 in0.0 mm 0.01 in0.3 mm
02:42 PM 57.2°F14.0°C 35.4°F1.9°C 44% 4.3 mph WSW6.9 kmh WSW 10.5 mph16.9 kmh 29.97 in1014.9 mb 0.00 in0.0 mm 0.00 in0.0 mm 0.01 in0.3 mm
02:47 PM 57.0°F13.9°C 37.6°F3.1°C 48% 5.1 mph SW8.2 kmh SW 11.6 mph18.7 kmh 29.97 in1014.9 mb 0.00 in0.0 mm 0.00 in0.0 mm 0.01 in0.3 mm
02:52 PM 57.2°F14.0°C 36.7°F2.6°C 46% 4.5 mph W7.2 kmh W 8.5 mph13.7 kmh 29.97 in1014.9 mb 0.00 in0.0 mm 0.00 in0.0 mm 0.01 in0.3 mm
02:57 PM 57.6°F14.2°C 36.9°F2.7°C 46% 6.5 mph SSE10.5 kmh SSE 11.6 mph18.7 kmh 29.97 in1014.9 mb 0.00 in0.0 mm 0.00 in0.0 mm 0.01 in0.3 mm
03:02 PM 57.6°F14.2°C 37.4°F3.0°C 47% 4.7 mph SW7.6 kmh SW 8.5 mph13.7 kmh 29.97 in1014.9 mb 0.00 in0.0 mm 0.00 in0.0 mm 0.01 in0.3 mm
03:07 PM 57.4°F14.1°C 35.6°F2.0°C 44% 5.8 mph WNW9.3 kmh WNW 10.5 mph16.9 kmh 29.98 in1015.2 mb 0.00 in0.0 mm 0.00 in0.0 mm 0.01 in0.3 mm
03:12 PM 57.0°F13.9°C 33.6°F0.9°C 41% 4.9 mph SW7.9 kmh SW 10.5 mph16.9 kmh 29.98 in1015.2 mb 0.00 in0.0 mm 0.00 in0.0 mm 0.01 in0.3 mm
03:17 PM 57.0°F13.9°C 37.6°F3.1°C 48% 6.5 mph SW10.5 kmh SW 10.5 mph16.9 kmh 29.98 in1015.2 mb 0.00 in0.0 mm 0.00 in0.0 mm 0.01 in0.3 mm
03:22 PM 57.4°F14.1°C 37.9°F3.3°C 48% 5.8 mph WSW9.3 kmh WSW 9.6 mph15.4 kmh 29.98 in1015.2 mb 0.00 in0.0 mm 0.00 in0.0 mm 0.01 in0.3 mm
03:27 PM 57.4°F14.1°C 36.7°F2.6°C 46% 7.2 mph WSW11.6 kmh WSW 12.8 mph20.6 kmh 29.98 in1015.2 mb 0.00 in0.0 mm 0.00 in0.0 mm 0.01 in0.3 mm
03:32 PM 57.4°F14.1°C 37.4°F3.0°C 47% 6.7 mph WSW10.8 kmh WSW 12.8 mph20.6 kmh 29.98 in1015.2 mb 0.00 in0.0 mm 0.00 in0.0 mm 0.01 in0.3 mm
03:37 PM 57.0°F13.9°C 37.6°F3.1°C 48% 6.3 mph WSW10.1 kmh WSW 12.8 mph20.6 kmh 29.99 in1015.6 mb 0.00 in0.0 mm 0.00 in0.0 mm 0.01 in0.3 mm
03:42 PM 56.8°F13.8°C 35.8°F2.1°C 45% 6.7 mph W10.8 kmh W 12.8 mph20.6 kmh 29.99 in1015.6 mb 0.00 in0.0 mm 0.00 in0.0 mm 0.01 in0.3 mm
03:47 PM 57.0°F13.9°C 32.9°F0.5°C 40% 7.2 mph W11.6 kmh W 11.6 mph18.7 kmh 29.99 in1015.6 mb 0.00 in0.0 mm 0.00 in0.0 mm 0.01 in0.3 mm
03:52 PM 57.0°F13.9°C 34.7°F1.5°C 43% 4.0 mph SW6.4 kmh SW 9.6 mph15.4 kmh 30.00 in1015.9 mb 0.00 in0.0 mm 0.00 in0.0 mm 0.01 in0.3 mm
03:57 PM 57.2°F14.0°C 33.1°F0.6°C 40% 4.0 mph WSW6.4 kmh WSW 8.5 mph13.7 kmh 30.00 in1015.9 mb 0.00 in0.0 mm 0.00 in0.0 mm 0.01 in0.3 mm
04:02 PM 57.2°F14.0°C 36.0°F2.2°C 45% 4.5 mph WSW7.2 kmh WSW 9.6 mph15.4 kmh 30.00 in1015.9 mb 0.00 in0.0 mm 0.00 in0.0 mm 0.01 in0.3 mm
04:07 PM 57.0°F13.9°C 32.9°F0.5°C 40% 2.2 mph WSW3.5 kmh WSW 7.4 mph11.9 kmh 30.00 in1015.9 mb 0.00 in0.0 mm 0.00 in0.0 mm 0.01 in0.3 mm
04:12 PM 57.0°F13.9°C 31.6°F-0.2°C 38% 5.1 mph W8.2 kmh W 8.5 mph13.7 kmh 30.00 in1015.9 mb 0.00 in0.0 mm 0.00 in0.0 mm 0.01 in0.3 mm
04:17 PM 57.0°F13.9°C 30.9°F-0.6°C 37% 3.8 mph W6.1 kmh W 6.3 mph10.1 kmh 30.00 in1015.9 mb 0.00 in0.0 mm 0.00 in0.0 mm 0.01 in0.3 mm
04:22 PM 56.8°F13.8°C 32.7°F0.4°C 40% 4.0 mph WSW6.4 kmh WSW 8.5 mph13.7 kmh 30.01 in1016.3 mb 0.00 in0.0 mm 0.00 in0.0 mm 0.01 in0.3 mm
04:27 PM 56.8°F13.8°C 31.5°F-0.3°C 38% 5.6 mph WSW9.0 kmh WSW 9.6 mph15.4 kmh 30.01 in1016.3 mb 0.00 in0.0 mm 0.00 in0.0 mm 0.01 in0.3 mm
04:32 PM 56.5°F13.6°C 32.4°F0.2°C 40% 5.1 mph SSW8.2 kmh SSW 9.6 mph15.4 kmh 30.01 in1016.3 mb 0.00 in0.0 mm 0.00 in0.0 mm 0.01 in0.3 mm
04:37 PM 56.5°F13.6°C 30.6°F-0.8°C 37% 3.6 mph SW5.8 kmh SW 8.5 mph13.7 kmh 30.01 in1016.3 mb 0.00 in0.0 mm 0.00 in0.0 mm 0.01 in0.3 mm
04:42 PM 56.3°F13.5°C 31.1°F-0.5°C 38% 4.9 mph NW7.9 kmh NW 9.6 mph15.4 kmh 30.01 in1016.3 mb 0.00 in0.0 mm 0.00 in0.0 mm 0.01 in0.3 mm
04:47 PM 55.9°F13.3°C 32.0°F0.0°C 40% 4.7 mph WSW7.6 kmh WSW 7.4 mph11.9 kmh 30.01 in1016.3 mb 0.00 in0.0 mm 0.00 in0.0 mm 0.01 in0.3 mm
04:52 PM 55.8°F13.2°C 31.8°F-0.1°C 40% 3.6 mph WNW5.8 kmh WNW 6.3 mph10.1 kmh 30.01 in1016.3 mb 0.00 in0.0 mm 0.00 in0.0 mm 0.01 in0.3 mm
04:57 PM 55.8°F13.2°C 34.2°F1.2°C 44% 1.3 mph WSW2.1 kmh WSW 6.3 mph10.1 kmh 30.02 in1016.6 mb 0.00 in0.0 mm 0.00 in0.0 mm 0.01 in0.3 mm
05:02 PM 55.6°F13.1°C 31.6°F-0.2°C 40% 3.6 mph SW5.8 kmh SW 6.3 mph10.1 kmh 30.02 in1016.6 mb 0.00 in0.0 mm 0.00 in0.0 mm 0.01 in0.3 mm
05:07 PM 55.0°F12.8°C 31.8°F-0.1°C 41% 4.0 mph W6.4 kmh W 6.3 mph10.1 kmh 30.02 in1016.6 mb 0.00 in0.0 mm 0.00 in0.0 mm 0.01 in0.3 mm
05:12 PM 54.7°F12.6°C 32.5°F0.3°C 43% 2.5 mph SSW4.0 kmh SSW 5.4 mph8.7 kmh 30.02 in1016.6 mb 0.00 in0.0 mm 0.00 in0.0 mm 0.01 in0.3 mm
05:17 PM 54.3°F12.4°C 31.6°F-0.2°C 42% 1.6 mph W2.6 kmh W 6.3 mph10.1 kmh 30.03 in1016.9 mb 0.00 in0.0 mm 0.00 in0.0 mm 0.01 in0.3 mm
05:22 PM 54.1°F12.3°C 32.7°F0.4°C 44% 1.8 mph W2.9 kmh W 4.3 mph6.9 kmh 30.03 in1016.9 mb 0.00 in0.0 mm 0.00 in0.0 mm 0.01 in0.3 mm
05:27 PM 53.8°F12.1°C 32.9°F0.5°C 45% 2.0 mph NW3.2 kmh NW 4.3 mph6.9 kmh 30.03 in1016.9 mb 0.00 in0.0 mm 0.00 in0.0 mm 0.01 in0.3 mm
05:32 PM 53.4°F11.9°C 33.6°F0.9°C 47% 0.2 mph WNW0.3 kmh WNW 2.0 mph3.2 kmh 30.03 in1016.9 mb 0.00 in0.0 mm 0.00 in0.0 mm 0.01 in0.3 mm
05:37 PM 53.2°F11.8°C 33.1°F0.6°C 46% 1.6 mph SW2.6 kmh SW 4.3 mph6.9 kmh 30.03 in1016.9 mb 0.00 in0.0 mm 0.00 in0.0 mm 0.01 in0.3 mm
05:42 PM 53.1°F11.7°C 32.9°F0.5°C 46% 1.3 mph WSW2.1 kmh WSW 3.1 mph5.0 kmh 30.03 in1016.9 mb 0.00 in0.0 mm 0.00 in0.0 mm 0.01 in0.3 mm
05:47 PM 52.9°F11.6°C 32.7°F0.4°C 46% 0.4 mph NW0.6 kmh NW 3.1 mph5.0 kmh 30.04 in1017.3 mb 0.00 in0.0 mm 0.00 in0.0 mm 0.01 in0.3 mm
05:52 PM 52.5°F11.4°C 33.4°F0.8°C 48% 1.1 mph WNW1.8 kmh WNW 3.1 mph5.0 kmh 30.04 in1017.3 mb 0.00 in0.0 mm 0.00 in0.0 mm 0.01 in0.3 mm
05:57 PM 52.3°F11.3°C 34.2°F1.2°C 50% Calm Calm 2.0 mph3.2 kmh 30.04 in1017.3 mb 0.00 in0.0 mm 0.00 in0.0 mm 0.01 in0.3 mm
06:02 PM 52.2°F11.2°C 35.1°F1.7°C 52% 0.7 mph W1.1 kmh W 2.0 mph3.2 kmh 30.05 in1017.6 mb 0.00 in0.0 mm 0.00 in0.0 mm 0.01 in0.3 mm
06:07 PM 51.8°F11.0°C 35.6°F2.0°C 54% Calm Calm 1.1 mph1.8 kmh 30.05 in1017.6 mb 0.00 in0.0 mm 0.00 in0.0 mm 0.01 in0.3 mm
06:12 PM 51.6°F10.9°C 36.0°F2.2°C 55% Calm Calm 1.1 mph1.8 kmh 30.06 in1017.9 mb 0.00 in0.0 mm 0.00 in0.0 mm 0.01 in0.3 mm
06:17 PM 51.3°F10.7°C 36.5°F2.5°C 57% Calm Calm -- 30.06 in1017.9 mb 0.00 in0.0 mm 0.00 in0.0 mm 0.01 in0.3 mm
06:22 PM 50.9°F10.5°C 36.1°F2.3°C 57% Calm Calm -- 30.06 in1017.9 mb 0.00 in0.0 mm 0.00 in0.0 mm 0.01 in0.3 mm
06:27 PM 50.7°F10.4°C 36.5°F2.5°C 58% Calm Calm -- 30.07 in1018.3 mb 0.00 in0.0 mm 0.00 in0.0 mm 0.01 in0.3 mm
06:32 PM 50.5°F10.3°C 36.3°F2.4°C 58% Calm Calm 1.1 mph1.8 kmh 30.07 in1018.3 mb 0.00 in0.0 mm 0.00 in0.0 mm 0.01 in0.3 mm
06:37 PM 50.4°F10.2°C 36.1°F2.3°C 58% Calm Calm -- 30.07 in1018.3 mb 0.00 in0.0 mm 0.00 in0.0 mm 0.01 in0.3 mm
06:42 PM 49.8°F9.9°C 36.9°F2.7°C 61% Calm Calm -- 30.07 in1018.3 mb 0.00 in0.0 mm 0.00 in0.0 mm 0.01 in0.3 mm
06:47 PM 49.3°F9.6°C 37.2°F2.9°C 63% Calm Calm -- 30.07 in1018.3 mb 0.00 in0.0 mm 0.00 in0.0 mm 0.01 in0.3 mm
06:52 PM 48.6°F9.2°C 37.4°F3.0°C 65% Calm Calm -- 30.08 in1018.6 mb 0.00 in0.0 mm 0.00 in0.0 mm 0.01 in0.3 mm
06:57 PM 48.6°F9.2°C 36.9°F2.7°C 64% Calm Calm 1.1 mph1.8 kmh 30.08 in1018.6 mb 0.00 in0.0 mm 0.00 in0.0 mm 0.01 in0.3 mm
07:02 PM 48.6°F9.2°C 36.9°F2.7°C 64% Calm Calm -- 30.08 in1018.6 mb 0.00 in0.0 mm 0.00 in0.0 mm 0.01 in0.3 mm
07:07 PM 48.0°F8.9°C 36.9°F2.7°C 65% Calm Calm -- 30.08 in1018.6 mb 0.00 in0.0 mm 0.00 in0.0 mm 0.01 in0.3 mm
07:12 PM 48.0°F8.9°C 37.2°F2.9°C 66% Calm Calm -- 30.08 in1018.6 mb 0.00 in0.0 mm 0.00 in0.0 mm 0.01 in0.3 mm
07:17 PM 47.8°F8.8°C 37.0°F2.8°C 66% Calm Calm -- 30.08 in1018.6 mb 0.00 in0.0 mm 0.00 in0.0 mm 0.01 in0.3 mm
07:22 PM 47.7°F8.7°C 36.9°F2.7°C 66% Calm Calm -- 30.08 in1018.6 mb 0.00 in0.0 mm 0.00 in0.0 mm 0.01 in0.3 mm
07:27 PM 47.7°F8.7°C 36.9°F2.7°C 66% Calm Calm -- 30.09 in1019.0 mb 0.00 in0.0 mm 0.00 in0.0 mm 0.01 in0.3 mm
07:32 PM 47.8°F8.8°C 37.0°F2.8°C 66% Calm Calm -- 30.09 in1019.0 mb 0.00 in0.0 mm 0.00 in0.0 mm 0.01 in0.3 mm
07:37 PM 47.8°F8.8°C 37.4°F3.0°C 67% 1.6 mph ENE2.6 kmh ENE 2.0 mph3.2 kmh 30.09 in1019.0 mb 0.00 in0.0 mm 0.00 in0.0 mm 0.01 in0.3 mm
07:42 PM 47.1°F8.4°C 37.4°F3.0°C 69% Calm Calm 2.0 mph3.2 kmh 30.09 in1019.0 mb 0.00 in0.0 mm 0.00 in0.0 mm 0.01 in0.3 mm
07:47 PM 46.6°F8.1°C 37.4°F3.0°C 70% Calm Calm -- 30.10 in1019.3 mb 0.00 in0.0 mm 0.00 in0.0 mm 0.01 in0.3 mm
07:52 PM 46.0°F7.8°C 37.2°F2.9°C 71% Calm Calm -- 30.09 in1019.0 mb 0.00 in0.0 mm 0.00 in0.0 mm 0.01 in0.3 mm
07:57 PM 46.0°F7.8°C 37.6°F3.1°C 72% Calm Calm 1.1 mph1.8 kmh 30.10 in1019.3 mb 0.00 in0.0 mm 0.00 in0.0 mm 0.01 in0.3 mm
08:02 PM 45.9°F7.7°C 37.4°F3.0°C 72% Calm Calm -- 30.10 in1019.3 mb 0.00 in0.0 mm 0.00 in0.0 mm 0.01 in0.3 mm
08:07 PM 45.7°F7.6°C 37.2°F2.9°C 72% Calm Calm -- 30.10 in1019.3 mb 0.00 in0.0 mm 0.00 in0.0 mm 0.01 in0.3 mm
08:12 PM 45.7°F7.6°C 37.6°F3.1°C 73% Calm Calm -- 30.10 in1019.3 mb 0.00 in0.0 mm 0.00 in0.0 mm 0.01 in0.3 mm
08:17 PM 45.3°F7.4°C 37.2°F2.9°C 73% Calm Calm -- 30.10 in1019.3 mb 0.00 in0.0 mm 0.00 in0.0 mm 0.01 in0.3 mm
08:22 PM 45.1°F7.3°C 37.4°F3.0°C 74% Calm Calm -- 30.11 in1019.6 mb 0.00 in0.0 mm 0.00 in0.0 mm 0.01 in0.3 mm
08:27 PM 44.8°F7.1°C 37.4°F3.0°C 75% Calm Calm -- 30.11 in1019.6 mb 0.00 in0.0 mm 0.00 in0.0 mm 0.01 in0.3 mm
08:32 PM 44.4°F6.9°C 37.4°F3.0°C 76% Calm Calm -- 30.11 in1019.6 mb 0.00 in0.0 mm 0.00 in0.0 mm 0.01 in0.3 mm
08:37 PM 44.4°F6.9°C 37.4°F3.0°C 76% Calm Calm -- 30.11 in1019.6 mb 0.00 in0.0 mm 0.00 in0.0 mm 0.01 in0.3 mm
08:42 PM 44.6°F7.0°C 37.6°F3.1°C 76% Calm Calm -- 30.11 in1019.6 mb 0.00 in0.0 mm 0.00 in0.0 mm 0.01 in0.3 mm
08:47 PM 44.4°F6.9°C 37.4°F3.0°C 76% Calm Calm -- 30.11 in1019.6 mb 0.00 in0.0 mm 0.00 in0.0 mm 0.01 in0.3 mm
08:52 PM 44.1°F6.7°C 37.0°F2.8°C 76% Calm Calm -- 30.12 in1020.0 mb 0.00 in0.0 mm 0.00 in0.0 mm 0.01 in0.3 mm
08:57 PM 43.9°F6.6°C 37.2°F2.9°C 77% Calm Calm -- 30.12 in1020.0 mb 0.00 in0.0 mm 0.00 in0.0 mm 0.01 in0.3 mm
09:02 PM 43.7°F6.5°C 37.2°F2.9°C 78% Calm Calm -- 30.12 in1020.0 mb 0.00 in0.0 mm 0.00 in0.0 mm 0.01 in0.3 mm
09:07 PM 43.9°F6.6°C 37.4°F3.0°C 78% Calm Calm -- 30.12 in1020.0 mb 0.00 in0.0 mm 0.00 in0.0 mm 0.01 in0.3 mm
09:12 PM 43.7°F6.5°C 37.0°F2.8°C 77% Calm Calm -- 30.12 in1020.0 mb 0.00 in0.0 mm 0.00 in0.0 mm 0.01 in0.3 mm
09:17 PM 43.3°F6.3°C 36.9°F2.7°C 78% Calm Calm -- 30.12 in1020.0 mb 0.00 in0.0 mm 0.00 in0.0 mm 0.01 in0.3 mm
09:22 PM 43.2°F6.2°C 37.4°F3.0°C 80% Calm Calm -- 30.12 in1020.0 mb 0.00 in0.0 mm 0.00 in0.0 mm 0.01 in0.3 mm
09:27 PM 43.0°F6.1°C 37.2°F2.9°C 80% Calm Calm -- 30.13 in1020.3 mb 0.00 in0.0 mm 0.00 in0.0 mm 0.01 in0.3 mm
09:32 PM 43.0°F6.1°C 37.2°F2.9°C 80% Calm Calm -- 30.13 in1020.3 mb 0.00 in0.0 mm 0.00 in0.0 mm 0.01 in0.3 mm
09:37 PM 42.8°F6.0°C 36.7°F2.6°C 79% Calm Calm -- 30.13 in1020.3 mb 0.00 in0.0 mm 0.00 in0.0 mm 0.01 in0.3 mm
09:42 PM 42.4°F5.8°C 36.3°F2.4°C 79% Calm Calm -- 30.13 in1020.3 mb 0.00 in0.0 mm 0.00 in0.0 mm 0.01 in0.3 mm
09:47 PM 42.1°F5.6°C 36.3°F2.4°C 80% Calm Calm -- 30.14 in1020.7 mb 0.00 in0.0 mm 0.00 in0.0 mm 0.01 in0.3 mm
09:52 PM 41.9°F5.5°C 36.1°F2.3°C 80% Calm Calm -- 30.14 in1020.7 mb 0.00 in0.0 mm 0.00 in0.0 mm 0.01 in0.3 mm
09:57 PM 41.9°F5.5°C 36.1°F2.3°C 80% Calm Calm -- 30.13 in1020.3 mb 0.00 in0.0 mm 0.00 in0.0 mm 0.01 in0.3 mm
10:02 PM 41.9°F5.5°C 36.1°F2.3°C 80% Calm Calm -- 30.14 in1020.7 mb 0.00 in0.0 mm 0.00 in0.0 mm 0.01 in0.3 mm
10:07 PM 41.7°F5.4°C 36.0°F2.2°C 80% Calm Calm -- 30.14 in1020.7 mb 0.00 in0.0 mm 0.00 in0.0 mm 0.01 in0.3 mm
10:12 PM 41.5°F5.3°C 35.8°F2.1°C 80% Calm Calm -- 30.14 in1020.7 mb 0.00 in0.0 mm 0.00 in0.0 mm 0.01 in0.3 mm
10:17 PM 41.2°F5.1°C 35.8°F2.1°C 81% Calm Calm -- 30.14 in1020.7 mb 0.00 in0.0 mm 0.00 in0.0 mm 0.01 in0.3 mm
10:22 PM 41.0°F5.0°C 35.6°F2.0°C 81% Calm Calm -- 30.14 in1020.7 mb 0.00 in0.0 mm 0.00 in0.0 mm 0.01 in0.3 mm
10:27 PM 40.6°F4.8°C 35.2°F1.8°C 81% Calm Calm -- 30.14 in1020.7 mb 0.00 in0.0 mm 0.00 in0.0 mm 0.01 in0.3 mm
10:32 PM 40.5°F4.7°C 35.1°F1.7°C 81% Calm Calm -- 30.14 in1020.7 mb 0.00 in0.0 mm 0.00 in0.0 mm 0.01 in0.3 mm
10:37 PM 40.6°F4.8°C 35.6°F2.0°C 82% Calm Calm -- 30.15 in1021.0 mb 0.00 in0.0 mm 0.00 in0.0 mm 0.01 in0.3 mm
10:42 PM 40.6°F4.8°C 35.6°F2.0°C 82% Calm Calm -- 30.15 in1021.0 mb 0.00 in0.0 mm 0.00 in0.0 mm 0.01 in0.3 mm
10:47 PM 40.8°F4.9°C 35.8°F2.1°C 82% Calm Calm -- 30.14 in1020.7 mb 0.00 in0.0 mm 0.00 in0.0 mm 0.01 in0.3 mm
10:52 PM 41.0°F5.0°C 35.6°F2.0°C 81% Calm Calm -- 30.15 in1021.0 mb 0.00 in0.0 mm 0.00 in0.0 mm 0.01 in0.3 mm
10:57 PM 40.6°F4.8°C 35.2°F1.8°C 81% Calm Calm -- 30.15 in1021.0 mb 0.00 in0.0 mm 0.00 in0.0 mm 0.01 in0.3 mm
11:02 PM 40.6°F4.8°C 35.6°F2.0°C 82% Calm Calm -- 30.15 in1021.0 mb 0.00 in0.0 mm 0.00 in0.0 mm 0.01 in0.3 mm
11:07 PM 40.5°F4.7°C 35.4°F1.9°C 82% Calm Calm -- 30.15 in1021.0 mb 0.00 in0.0 mm 0.00 in0.0 mm 0.01 in0.3 mm
11:12 PM 40.3°F4.6°C 35.2°F1.8°C 82% Calm Calm -- 30.15 in1021.0 mb 0.00 in0.0 mm 0.00 in0.0 mm 0.01 in0.3 mm
11:17 PM 40.1°F4.5°C 35.1°F1.7°C 82% Calm Calm -- 30.16 in1021.3 mb 0.00 in0.0 mm 0.00 in0.0 mm 0.01 in0.3 mm
11:22 PM 40.1°F4.5°C 35.1°F1.7°C 82% Calm Calm -- 30.16 in1021.3 mb 0.00 in0.0 mm 0.00 in0.0 mm 0.01 in0.3 mm
11:27 PM 40.1°F4.5°C 35.1°F1.7°C 82% Calm Calm -- 30.16 in1021.3 mb 0.00 in0.0 mm 0.00 in0.0 mm 0.01 in0.3 mm
11:32 PM 40.3°F4.6°C 35.2°F1.8°C 82% Calm Calm -- 30.16 in1021.3 mb 0.00 in0.0 mm 0.00 in0.0 mm 0.01 in0.3 mm
11:37 PM 40.5°F4.7°C 35.4°F1.9°C 82% Calm Calm -- 30.16 in1021.3 mb 0.00 in0.0 mm 0.00 in0.0 mm 0.01 in0.3 mm
11:42 PM 40.3°F4.6°C 35.2°F1.8°C 82% Calm Calm -- 30.16 in1021.3 mb 0.00 in0.0 mm 0.00 in0.0 mm 0.01 in0.3 mm
11:47 PM 40.3°F4.6°C 34.9°F1.6°C 81% Calm Calm -- 30.16 in1021.3 mb 0.00 in0.0 mm 0.00 in0.0 mm 0.01 in0.3 mm
11:52 PM 40.1°F4.5°C 35.1°F1.7°C 82% Calm Calm -- 30.16 in1021.3 mb 0.00 in0.0 mm 0.00 in0.0 mm 0.01 in0.3 mm
11:57 PM 40.1°F4.5°C 34.7°F1.5°C 81% Calm Calm -- 30.16 in1021.3 mb 0.00 in0.0 mm 0.00 in0.0 mm 0.01 in0.3 mm